Time;durP1;ratioP1;P1;durP2;ratioP2;P2;SDS_P1;SDS_P2;PMS_P1;PMS_P2;Temp;Humidity;BMP_temperature;BMP_pressure;BME280_temperature;BME280_humidity;BME280_pressure;Samples;Min_cycle;Max_cycle;Signal;HPM_P1;HPM_P2
2021/12/23 00:01:04;;;;;;;22.67;10.82;;;;;;;-4.78;61.34;96365.09;5026414;28;20412;-77
2021/12/23 00:03:30;;;;;;;24.23;12.10;;;;;;;-4.81;61.73;96370.44;4993221;28;20029;-76
2021/12/23 00:05:55;;;;;;;22.75;10.80;;;;;;;-4.82;61.37;96369.59;5025673;28;20415;-77
2021/12/23 00:08:21;;;;;;;22.15;11.77;;;;;;;-4.80;61.82;96372.19;5027204;28;20427;-76
2021/12/23 00:10:46;;;;;;;25.17;12.07;;;;;;;-4.75;61.52;96371.06;5025986;28;20519;-78
2021/12/23 00:13:12;;;;;;;22.13;11.82;;;;;;;-4.79;61.38;96371.25;5008478;28;20030;-78
2021/12/23 00:16:00;;;;;;;25.23;12.77;;;;;;;-4.80;61.38;96366.94;5027889;28;20452;-77
2021/12/23 00:23:41;;;;;;;21.92;11.30;;;;;;;-4.90;61.84;96356.81;5026096;28;20477;-77
2021/12/23 00:26:07;;;;;;;22.45;11.18;;;;;;;-5.03;62.18;96363.44;5026370;28;20026;-77
2021/12/23 00:28:32;;;;;;;22.25;11.45;;;;;;;-5.18;62.29;96360.47;5027018;28;20502;-76
2021/12/23 00:30:59;;;;;;;27.50;11.27;;;;;;;-5.14;62.31;96359.44;5025848;28;20554;-78
2021/12/23 00:33:25;;;;;;;21.55;11.52;;;;;;;-5.13;62.17;96363.78;5026850;28;20471;-76
2021/12/23 00:35:50;;;;;;;21.27;10.77;;;;;;;-5.19;62.60;96365.75;5026465;28;20029;-77
2021/12/23 00:38:21;;;;;;;24.20;10.85;;;;;;;-5.07;62.05;96369.66;5026781;28;20108;-78
2021/12/23 00:40:47;;;;;;;18.23;10.25;;;;;;;-5.21;62.65;96365.81;5026444;28;20462;-77
2021/12/23 00:43:12;;;;;;;27.10;11.02;;;;;;;-5.17;62.69;96367.41;5008921;28;20491;-78
2021/12/23 00:45:39;;;;;;;21.77;11.15;;;;;;;-5.28;63.09;96361.72;5026936;28;20053;-77
2021/12/23 00:48:05;;;;;;;23.27;11.23;;;;;;;-5.25;63.03;96364.22;5025594;28;20415;-77
2021/12/23 00:50:30;;;;;;;22.58;11.27;;;;;;;-5.24;62.44;96366.78;5026514;28;20053;-77
2021/12/23 00:52:58;;;;;;;27.20;12.00;;;;;;;-5.21;62.51;96360.59;5025927;28;20092;-77
2021/12/23 00:55:23;;;;;;;22.83;10.90;;;;;;;-5.24;62.58;96358.09;5032050;28;20062;-77
2021/12/23 00:57:49;;;;;;;21.75;11.88;;;;;;;-5.18;62.30;96352.63;5031354;28;20045;-76
2021/12/23 01:00:19;;;;;;;19.75;10.05;;;;;;;-5.28;62.65;96348.63;5033932;28;20032;-76
2021/12/23 01:02:46;;;;;;;22.90;9.98;;;;;;;-5.42;62.88;96342.16;5032269;28;20033;-76
2021/12/23 01:05:12;;;;;;;26.70;12.07;;;;;;;-5.81;64.05;96337.44;5009957;28;20048;-76
2021/12/23 01:07:38;;;;;;;21.38;10.10;;;;;;;-5.71;64.22;96349.28;5026904;28;20064;-77
2021/12/23 01:10:04;;;;;;;19.40;9.45;;;;;;;-5.69;64.18;96350.06;5025698;28;20025;-75
2021/12/23 01:12:36;;;;;;;19.65;8.60;;;;;;;-5.62;63.74;96343.72;5026858;28;20022;-76
2021/12/23 01:17:59;;;;;;;16.38;8.02;;;;;;;-5.39;63.26;96349.03;5025790;28;20041;-77
2021/12/23 01:20:30;;;;;;;18.65;8.68;;;;;;;-5.42;63.50;96342.16;5026602;28;20037;-77
2021/12/23 01:22:59;;;;;;;16.35;8.10;;;;;;;-5.36;63.38;96343.69;5007853;28;20036;-77
2021/12/23 01:25:24;;;;;;;16.35;8.60;;;;;;;-5.30;62.93;96340.00;5026584;28;20247;-76
2021/12/23 01:27:50;;;;;;;20.67;8.73;;;;;;;-5.39;62.85;96341.19;5025229;28;20497;-77
2021/12/23 01:30:17;;;;;;;20.65;9.45;;;;;;;-5.37;62.82;96332.38;5026156;28;20032;-77
2021/12/23 01:32:43;;;;;;;15.82;8.00;;;;;;;-5.30;62.42;96334.78;5025589;28;20028;-78
2021/12/23 01:35:09;;;;;;;20.48;8.77;;;;;;;-5.29;62.33;96332.09;5027265;28;20068;-76
2021/12/23 01:37:34;;;;;;;20.38;9.95;;;;;;;-5.36;62.59;96334.09;5030057;28;20040;-77
2021/12/23 01:40:00;;;;;;;19.95;9.32;;;;;;;-5.22;62.31;96330.09;5029330;28;20083;-77
2021/12/23 01:42:25;;;;;;;15.90;8.32;;;;;;;-5.14;61.70;96328.03;5030511;28;20029;-76
2021/12/23 01:44:50;;;;;;;17.65;9.30;;;;;;;-5.14;61.89;96333.28;5029101;28;20034;-76
2021/12/23 01:47:16;;;;;;;17.33;9.65;;;;;;;-5.14;62.02;96328.03;5030515;28;20432;-76
2021/12/23 01:49:41;;;;;;;17.52;9.50;;;;;;;-5.05;61.73;96321.63;5029346;28;20531;-77
2021/12/23 01:52:07;;;;;;;22.10;10.32;;;;;;;-5.03;61.50;96330.25;5011943;28;20053;-77
2021/12/23 01:54:32;;;;;;;21.80;10.23;;;;;;;-5.05;61.52;96326.84;5029839;28;20017;-77
2021/12/23 01:56:58;;;;;;;18.17;9.75;;;;;;;-5.08;61.59;96334.81;5028898;28;20033;-78
2021/12/23 01:59:23;;;;;;;21.30;9.55;;;;;;;-5.14;61.70;96335.91;5012258;28;20039;-77
2021/12/23 02:01:49;;;;;;;24.38;10.27;;;;;;;-5.17;61.82;96343.84;5028364;28;20029;-77
2021/12/23 02:04:14;;;;;;;24.77;10.27;;;;;;;-5.16;61.91;96342.09;5030040;28;20026;-77
2021/12/23 02:06:39;;;;;;;22.25;10.38;;;;;;;-5.16;61.77;96334.25;5028730;28;20029;-78
2021/12/23 02:09:05;;;;;;;18.35;10.35;;;;;;;-5.17;61.77;96345.63;5029721;28;20508;-78
2021/12/23 02:11:30;;;;;;;25.25;10.70;;;;;;;-5.04;61.13;96343.38;5029211;28;20495;-77
2021/12/23 02:13:56;;;;;;;19.42;10.27;;;;;;;-5.24;61.76;96347.63;5029045;28;20032;-78
2021/12/23 02:16:22;;;;;;;27.17;11.18;;;;;;;-5.18;61.45;96357.84;5011864;28;20030;-76
2021/12/23 02:18:47;;;;;;;31.92;13.45;;;;;;;-5.43;61.18;96337.81;5028426;28;20021;-77
2021/12/23 02:21:13;;;;;;;29.88;13.27;;;;;;;-5.67;62.31;96337.81;5029998;28;20022;-76
2021/12/23 02:23:38;;;;;;;27.85;12.88;;;;;;;-5.79;62.64;96340.88;5028548;28;20488;-77
2021/12/23 02:26:04;;;;;;;29.27;13.02;;;;;;;-5.75;63.21;96342.44;5029315;28;20033;-77
2021/12/23 02:28:29;;;;;;;29.48;13.10;;;;;;;-5.85;63.56;96334.94;5028556;28;20038;-77
2021/12/23 02:30:55;;;;;;;30.63;14.50;;;;;;;-5.76;63.63;96335.53;5011429;28;20022;-77
2021/12/23 02:33:21;;;;;;;24.08;11.63;;;;;;;-5.78;63.97;96337.34;5028726;28;20100;-77
2021/12/23 02:35:47;;;;;;;23.35;11.27;;;;;;;-6.00;64.71;96338.09;5010776;28;20036;-77
2021/12/23 02:38:12;;;;;;;23.60;11.73;;;;;;;-6.02;64.37;96339.91;5029291;28;20021;-78
2021/12/23 02:40:39;;;;;;;25.00;12.30;;;;;;;-5.98;64.42;96337.13;5028176;28;20033;-76
2021/12/23 02:43:12;;;;;;;25.55;12.00;;;;;;;-5.94;64.22;96343.09;5011490;28;20036;-77
2021/12/23 02:45:37;;;;;;;24.70;11.38;;;;;;;-5.89;63.31;96340.31;5010549;28;20029;-76
2021/12/23 02:48:03;;;;;;;33.35;13.15;;;;;;;-5.90;62.67;96341.25;5028156;28;20079;-76
2021/12/23 02:50:29;;;;;;;26.05;13.13;;;;;;;-5.92;63.11;96338.69;5028462;28;20048;-76
2021/12/23 02:52:54;;;;;;;33.17;13.80;;;;;;;-6.11;63.73;96335.88;5028460;28;20038;-76
2021/12/23 02:55:20;;;;;;;25.45;12.57;;;;;;;-6.18;64.42;96326.53;5029061;28;20036;-78
2021/12/23 02:57:45;;;;;;;25.02;12.45;;;;;;;-6.23;64.57;96313.63;5028032;28;20032;-76
2021/12/23 03:00:11;;;;;;;34.55;12.60;;;;;;;-6.21;64.55;96319.66;5029126;28;20029;-76
2021/12/23 03:02:38;;;;;;;22.40;10.20;;;;;;;-6.24;65.02;96311.94;5027673;28;20488;-76
2021/12/23 03:05:04;;;;;;;27.50;11.85;;;;;;;-6.11;64.56;96309.75;5029025;28;20021;-75
2021/12/23 03:07:29;;;;;;;22.98;11.70;;;;;;;-5.97;63.95;96310.09;5028054;28;20083;-77
2021/12/23 03:09:55;;;;;;;32.58;12.20;;;;;;;-5.99;64.21;96305.81;5028494;28;20021;-76
2021/12/23 03:12:20;;;;;;;24.40;12.95;;;;;;;-6.09;64.40;96310.53;5010584;28;20492;-77
2021/12/23 03:14:45;;;;;;;25.15;12.13;;;;;;;-6.27;64.87;96305.03;5028650;28;20033;-76
2021/12/23 03:17:11;;;;;;;23.10;11.95;;;;;;;-6.38;65.22;96315.84;5028615;28;20026;-76
2021/12/23 03:19:36;;;;;;;26.10;13.23;;;;;;;-6.48;65.80;96317.91;5028046;28;20029;-76
2021/12/23 03:22:02;;;;;;;45.38;18.55;;;;;;;-6.43;65.70;96320.38;5028717;28;20028;-75
2021/12/23 03:24:27;;;;;;;33.75;14.40;;;;;;;-6.34;64.78;96314.00;5027473;28;20354;-74
2021/12/23 03:26:53;;;;;;;26.50;11.95;;;;;;;-6.29;65.01;96317.31;5028737;28;20029;-77
2021/12/23 03:29:18;;;;;;;27.35;13.75;;;;;;;-6.32;64.75;96312.19;5027462;28;20033;-75
2021/12/23 03:31:44;;;;;;;27.02;14.32;;;;;;;-6.45;65.01;96327.41;5028099;28;20412;-75
2021/12/23 03:34:09;;;;;;;35.35;16.25;;;;;;;-6.46;64.77;96316.09;5028015;28;20466;-76
2021/12/23 03:36:36;;;;;;;33.53;17.23;;;;;;;-6.38;65.53;96318.47;5027549;28;20487;-76
2021/12/23 03:39:01;;;;;;;29.30;14.80;;;;;;;-6.44;65.35;96329.13;5010685;28;20040;-77
2021/12/23 03:41:27;;;;;;;32.88;13.13;;;;;;;-6.31;64.00;96313.03;5026881;28;20033;-76
2021/12/23 03:43:52;;;;;;;31.27;14.43;;;;;;;-6.31;63.90;96315.63;5010366;28;20160;-77
2021/12/23 03:46:18;;;;;;;35.88;16.45;;;;;;;-6.48;64.08;96323.13;5027032;28;20480;-76
2021/12/23 03:48:43;;;;;;;29.98;15.32;;;;;;;-6.66;64.70;96332.44;5027647;28;20079;-77
2021/12/23 03:51:08;;;;;;;26.70;13.45;;;;;;;-6.62;64.60;96325.34;5009420;28;20126;-77
2021/12/23 03:53:34;;;;;;;31.98;14.20;;;;;;;-6.67;65.44;96322.88;5027777;28;20071;-77
2021/12/23 03:55:59;;;;;;;29.30;13.85;;;;;;;-6.66;64.97;96329.81;5027767;28;20033;-77
2021/12/23 03:58:25;;;;;;;24.45;11.20;;;;;;;-6.85;65.69;96326.94;5026895;28;20025;-76
2021/12/23 04:00:51;;;;;;;22.98;9.75;;;;;;;-6.90;65.58;96332.28;5028178;28;20029;-75
2021/12/23 04:03:16;;;;;;;17.90;8.75;;;;;;;-6.92;65.16;96334.09;5008708;28;20115;-77
2021/12/23 04:05:41;;;;;;;14.38;8.10;;;;;;;-6.90;65.31;96332.28;5010041;28;20034;-76
2021/12/23 04:08:07;;;;;;;15.23;7.50;;;;;;;-6.87;64.66;96336.56;5026894;28;20026;-77
2021/12/23 04:10:32;;;;;;;16.83;7.95;;;;;;;-6.98;65.57;96342.09;5027386;28;20041;-75
2021/12/23 04:12:58;;;;;;;17.17;8.60;;;;;;;-7.05;65.30;96337.97;5009153;28;20032;-77
2021/12/23 04:15:23;;;;;;;19.75;8.85;;;;;;;-7.02;66.41;96335.25;5027269;28;20192;-77
2021/12/23 04:17:49;;;;;;;13.77;7.32;;;;;;;-7.00;65.59;96336.06;5009294;28;20033;-76
2021/12/23 04:20:23;;;;;;;14.20;6.78;;;;;;;-6.96;65.10;96337.69;5008748;28;20034;-76
2021/12/23 04:22:53;;;;;;;12.57;6.78;;;;;;;-6.89;64.46;96339.22;5027398;28;20033;-77
2021/12/23 04:25:19;;;;;;;13.23;7.13;;;;;;;-6.85;63.79;96335.59;5008629;28;20033;-78
2021/12/23 04:27:46;;;;;;;14.95;7.75;;;;;;;-6.83;64.16;96344.25;5027611;28;20619;-76
2021/12/23 04:30:12;;;;;;;14.68;6.97;;;;;;;-6.86;64.09;96348.69;5026392;28;20112;-77
2021/12/23 04:32:37;;;;;;;12.45;6.97;;;;;;;-6.83;64.21;96353.81;5026595;28;20108;-78
2021/12/23 04:35:03;;;;;;;15.20;8.27;;;;;;;-6.88;64.18;96351.34;5027283;28;20554;-77
2021/12/23 04:37:29;;;;;;;21.00;8.10;;;;;;;-6.86;64.12;96338.25;5008874;28;20037;-76
2021/12/23 04:39:54;;;;;;;18.65;7.63;;;;;;;-6.92;65.11;96344.53;5026955;28;20488;-76
2021/12/23 04:42:20;;;;;;;16.20;7.93;;;;;;;-6.89;64.84;96346.19;5025794;28;20125;-75
2021/12/23 04:44:45;;;;;;;24.95;11.25;;;;;;;-6.88;64.91;96343.53;5009492;28;20021;-77
2021/12/23 04:47:10;;;;;;;25.98;12.65;;;;;;;-6.92;64.97;96339.31;5025979;28;20535;-78
2021/12/23 04:49:36;;;;;;;24.55;11.70;;;;;;;-6.99;64.84;96332.56;5027102;28;20033;-76
2021/12/23 04:52:01;;;;;;;18.85;9.73;;;;;;;-6.94;64.30;96341.09;5025976;28;20044;-77
2021/12/23 04:54:27;;;;;;;17.08;9.30;;;;;;;-6.89;64.36;96344.44;5026871;28;20025;-76
2021/12/23 04:56:52;;;;;;;17.45;8.68;;;;;;;-6.91;63.97;96345.34;5008422;28;20416;-77
2021/12/23 04:59:18;;;;;;;17.48;8.98;;;;;;;-6.93;64.32;96357.63;5008251;28;20469;-75
2021/12/23 05:01:43;;;;;;;15.20;8.00;;;;;;;-7.00;64.00;96362.16;5009081;28;20026;-78
2021/12/23 05:04:08;;;;;;;17.52;8.98;;;;;;;-7.07;64.79;96351.91;5025439;28;20109;-80
2021/12/23 05:06:34;;;;;;;15.02;7.70;;;;;;;-7.10;63.83;96351.16;5027401;28;20396;-76
2021/12/23 05:08:59;;;;;;;16.20;7.57;;;;;;;-7.02;63.41;96353.53;4984266;28;20485;-76
2021/12/23 05:11:25;;;;;;;19.15;8.65;;;;;;;-7.06;63.51;96352.75;5020985;28;20509;-79
2021/12/23 05:13:50;;;;;;;18.00;8.25;;;;;;;-7.12;64.02;96348.59;5020241;28;20033;-76
2021/12/23 05:16:17;;;;;;;16.20;8.60;;;;;;;-7.05;63.72;96348.41;5011669;28;20026;-77
2021/12/23 05:18:42;;;;;;;16.05;7.45;;;;;;;-7.11;64.53;96345.06;5019708;28;20745;-78
2021/12/23 05:21:08;;;;;;;14.18;7.40;;;;;;;-7.07;64.01;96345.84;5015159;28;20018;-77
2021/12/23 05:23:33;;;;;;;20.13;10.32;;;;;;;-7.17;63.78;96339.19;5025072;28;20478;-77
2021/12/23 05:25:58;;;;;;;18.48;9.80;;;;;;;-7.16;64.25;96341.75;5022323;28;20537;-77
2021/12/23 05:28:24;;;;;;;41.67;22.90;;;;;;;-7.11;64.50;96345.06;5018059;28;20388;-77
2021/12/23 05:30:49;;;;;;;22.63;12.27;;;;;;;-7.14;63.58;96344.31;5020184;28;20112;-79
2021/12/23 05:33:15;;;;;;;28.38;13.38;;;;;;;-7.12;63.61;96343.38;5021733;28;20429;-76
2021/12/23 05:35:41;;;;;;;16.35;9.68;;;;;;;-7.12;63.49;96342.50;5014484;28;20068;-78
2021/12/23 05:38:07;;;;;;;34.88;17.73;;;;;;;-7.15;64.06;96342.59;5013036;28;20409;-80
2021/12/23 05:40:33;;;;;;;17.58;8.32;;;;;;;-7.29;64.19;96348.22;5008969;28;20053;-75
2021/12/23 05:42:59;;;;;;;18.80;8.40;;;;;;;-7.45;64.57;96338.25;4986906;28;20061;-76
2021/12/23 05:45:25;;;;;;;19.15;8.75;;;;;;;-7.77;65.60;96337.41;5007122;28;20087;-80
2021/12/23 05:47:50;;;;;;;16.02;7.72;;;;;;;-7.64;65.59;96340.53;5006024;28;20033;-78
2021/12/23 05:50:17;;;;;;;17.30;8.40;;;;;;;-7.52;65.73;96336.69;5006918;28;20030;-77
2021/12/23 05:52:42;;;;;;;16.10;8.23;;;;;;;-7.47;65.56;96337.44;5024554;28;20431;-78
2021/12/23 05:55:08;;;;;;;18.33;8.70;;;;;;;-7.51;65.24;96338.44;5024547;28;20017;-78
2021/12/23 05:57:34;;;;;;;22.17;9.07;;;;;;;-7.45;65.14;96343.47;5004870;28;20041;-78
2021/12/23 06:00:00;;;;;;;20.88;10.30;;;;;;;-7.49;65.90;96341.81;5022182;28;20037;-78
2021/12/23 06:02:25;;;;;;;15.27;8.68;;;;;;;-7.53;65.89;96341.09;5024527;28;20123;-78
2021/12/23 06:04:51;;;;;;;21.02;9.15;;;;;;;-7.47;66.33;96342.66;5024483;28;20427;-80
2021/12/23 06:07:16;;;;;;;16.73;8.18;;;;;;;-7.45;67.01;96348.69;5003382;28;20040;-75
2021/12/23 06:09:41;;;;;;;22.08;9.60;;;;;;;-7.41;66.34;96350.28;5024246;28;20034;-77
2021/12/23 06:12:07;;;;;;;17.90;8.75;;;;;;;-7.39;67.19;96353.72;5007775;28;20036;-76
2021/12/23 06:14:33;;;;;;;18.40;8.88;;;;;;;-7.33;66.94;96355.28;5006584;28;20052;-76
2021/12/23 06:16:58;;;;;;;17.70;8.57;;;;;;;-7.29;66.67;96364.72;5025415;28;20025;-77
2021/12/23 06:19:24;;;;;;;21.10;9.32;;;;;;;-7.25;66.65;96363.72;5025551;28;20101;-77
2021/12/23 06:21:49;;;;;;;21.52;10.13;;;;;;;-7.16;66.80;96354.81;5026136;28;20033;-77
2021/12/23 06:24:15;;;;;;;25.95;13.23;;;;;;;-7.10;66.52;96365.06;5029271;28;20029;-76
2021/12/23 06:26:40;;;;;;;27.63;12.93;;;;;;;-6.97;66.33;96365.53;5010793;28;20044;-77
2021/12/23 06:29:06;;;;;;;28.05;13.13;;;;;;;-6.74;65.12;96374.41;5029448;28;20032;-77
2021/12/23 06:31:31;;;;;;;24.30;12.40;;;;;;;-6.75;65.44;96372.69;4994259;28;20030;-78
2021/12/23 06:33:56;;;;;;;26.98;11.82;;;;;;;-6.55;64.84;96372.97;5029091;28;20033;-78
2021/12/23 06:36:22;;;;;;;22.90;10.30;;;;;;;-6.48;64.08;96367.50;5010564;28;20033;-77
2021/12/23 06:38:47;;;;;;;17.75;9.48;;;;;;;-6.48;63.71;96364.91;5028578;28;20040;-77
2021/12/23 06:41:15;;;;;;;18.52;9.35;;;;;;;-6.37;63.71;96363.72;4994974;28;20025;-77
2021/12/23 06:43:40;;;;;;;21.67;9.60;;;;;;;-6.26;63.17;96363.34;5028085;28;20040;-77
2021/12/23 06:46:06;;;;;;;20.25;9.77;;;;;;;-6.13;62.35;96362.06;5029568;28;20034;-79
2021/12/23 06:48:32;;;;;;;19.38;9.93;;;;;;;-6.06;62.29;96354.84;5027967;28;20030;-80
2021/12/23 06:50:57;;;;;;;16.30;8.98;;;;;;;-5.93;61.70;96350.03;5011146;28;20168;-77
2021/12/23 06:53:23;;;;;;;20.60;10.90;;;;;;;-5.96;61.55;96360.56;5010018;28;20100;-79
2021/12/23 06:55:51;;;;;;;24.30;11.75;;;;;;;-5.78;61.01;96353.00;4994618;28;20033;-78
2021/12/23 06:58:17;;;;;;;18.83;10.40;;;;;;;-5.62;60.41;96353.31;4994774;28;20514;-75
2021/12/23 07:00:42;;;;;;;26.83;12.82;;;;;;;-5.47;59.91;96347.56;5010170;28;20113;-77
2021/12/23 07:03:08;;;;;;;28.73;14.02;;;;;;;-5.45;59.88;96352.75;5028732;28;20033;-77
2021/12/23 07:05:34;;;;;;;33.75;13.90;;;;;;;-5.52;60.18;96353.84;5009661;28;20033;-79
2021/12/23 07:08:10;;;;;;;28.42;14.25;;;;;;;-5.47;60.48;96357.16;5028963;28;20029;-79
2021/12/23 07:10:35;;;;;;;37.20;16.65;;;;;;;-5.37;60.10;96357.69;5027551;28;20036;-77
2021/12/23 07:13:01;;;;;;;32.25;15.23;;;;;;;-5.26;59.89;96360.75;5028445;28;20022;-78
2021/12/23 07:15:27;;;;;;;29.02;13.05;;;;;;;-5.22;59.91;96358.88;5010186;28;20033;-79
2021/12/23 07:17:53;;;;;;;22.83;11.43;;;;;;;-5.10;59.80;96361.03;5027929;28;20033;-79
2021/12/23 07:20:19;;;;;;;28.77;12.55;;;;;;;-4.93;59.32;96366.56;4994612;28;20056;-79
2021/12/23 07:22:44;;;;;;;24.95;12.00;;;;;;;-4.77;59.28;96367.66;4993272;28;20430;-78
2021/12/23 07:25:10;;;;;;;20.67;10.23;;;;;;;-4.62;58.53;96367.97;5028991;28;20512;-78
2021/12/23 07:27:36;;;;;;;22.80;10.43;;;;;;;-4.51;58.56;96367.53;4993079;28;20022;-78
2021/12/23 07:30:02;;;;;;;33.17;10.32;;;;;;;-4.47;58.12;96372.63;4994285;28;20026;-77
2021/12/23 07:32:27;;;;;;;18.85;9.80;;;;;;;-4.44;58.20;96371.63;5026951;28;20026;-78
2021/12/23 07:34:53;;;;;;;23.08;9.73;;;;;;;-4.24;58.08;96373.44;5010336;28;20037;-76
2021/12/23 07:37:19;;;;;;;19.90;9.80;;;;;;;-4.23;57.75;96367.31;5028437;28;20028;-79
2021/12/23 07:39:47;;;;;;;19.48;10.23;;;;;;;-4.16;57.46;96373.13;4993250;28;20119;-80
2021/12/23 07:42:15;;;;;;;22.48;11.43;;;;;;;-4.15;57.33;96374.84;5028318;28;20065;-78
2021/12/23 07:44:43;;;;;;;23.95;12.32;;;;;;;-3.83;57.16;96378.78;5026973;28;20427;-78
2021/12/23 07:47:09;;;;;;;32.65;16.38;;;;;;;-3.77;57.15;96379.41;4994473;28;20033;-76
2021/12/23 07:49:34;;;;;;;33.75;17.23;;;;;;;-3.67;56.90;96373.75;5026846;28;20411;-78
2021/12/23 07:52:00;;;;;;;34.63;17.15;;;;;;;-3.57;56.61;96380.31;5027364;28;20041;-79
2021/12/23 07:54:25;;;;;;;41.33;18.42;;;;;;;-3.36;56.37;96373.28;5027261;28;20385;-77
2021/12/23 08:00:13;;;;;;;35.70;16.05;;;;;;;-2.99;54.56;96376.03;5029032;28;20061;-78
2021/12/23 08:02:38;;;;;;;34.58;17.63;;;;;;;-2.96;54.40;96369.78;4996127;28;20418;-75
2021/12/23 08:05:04;;;;;;;35.35;18.98;;;;;;;-2.93;54.95;96380.13;5013879;28;20021;-77
2021/12/23 08:07:30;;;;;;;41.55;18.15;;;;;;;-2.81;54.27;96370.00;5013387;28;20082;-78
2021/12/23 08:09:55;;;;;;;38.08;16.88;;;;;;;-2.65;53.37;96371.00;5029940;28;20500;-80
2021/12/23 08:12:21;;;;;;;36.03;17.35;;;;;;;-2.69;54.16;96373.84;4994234;28;20032;-75
2021/12/23 08:14:46;;;;;;;35.83;19.05;;;;;;;-2.66;54.22;96371.06;5026865;28;20028;-75
2021/12/23 08:17:12;;;;;;;33.00;17.50;;;;;;;-2.46;54.43;96366.63;5027742;28;20025;-77
2021/12/23 08:19:37;;;;;;;30.42;15.25;;;;;;;-2.33;53.86;96366.91;5026247;28;20042;-75
2021/12/23 08:22:03;;;;;;;27.10;15.23;;;;;;;-2.31;53.40;96365.06;5027448;28;20029;-76
2021/12/23 08:24:29;;;;;;;38.17;16.30;;;;;;;-2.35;53.77;96364.34;5026582;28;20041;-78
2021/12/23 08:26:54;;;;;;;32.42;15.82;;;;;;;-2.24;53.11;96361.19;5026881;28;20029;-78
2021/12/23 08:29:20;;;;;;;32.85;15.48;;;;;;;-2.26;53.44;96365.69;5027334;28;20409;-78
2021/12/23 08:31:53;;;;;;;29.42;14.48;;;;;;;-2.15;52.99;96360.75;5026065;28;20033;-78
2021/12/23 08:34:23;;;;;;;22.55;12.23;;;;;;;-2.13;53.08;96363.31;5010705;28;20389;-78
2021/12/23 08:36:48;;;;;;;26.23;13.48;;;;;;;-1.99;53.25;96360.00;4992250;28;20068;-78
2021/12/23 08:39:15;;;;;;;26.67;14.65;;;;;;;-2.01;53.26;96353.94;4993391;28;20029;-79
2021/12/23 08:41:40;;;;;;;29.08;14.85;;;;;;;-1.83;53.11;96352.19;5008486;28;20040;-77
2021/12/23 08:44:05;;;;;;;32.35;13.68;;;;;;;-1.80;53.49;96345.91;4992201;28;20034;-77
2021/12/23 08:46:31;;;;;;;21.60;12.70;;;;;;;-1.75;53.23;96346.53;5026714;28;20022;-78
2021/12/23 08:48:56;;;;;;;22.50;12.82;;;;;;;-1.68;53.07;96345.31;5025974;28;20033;-77
2021/12/23 08:51:22;;;;;;;24.70;14.05;;;;;;;-1.70;52.57;96344.53;5027041;28;20041;-78
2021/12/23 08:53:48;;;;;;;27.63;13.75;;;;;;;-1.66;52.83;96340.78;5025596;28;20029;-78
2021/12/23 08:56:13;;;;;;;28.05;13.57;;;;;;;-1.60;52.43;96336.16;5027133;28;20029;-78
2021/12/23 09:07:48;;;;;;;23.75;11.93;;;;;;;-1.38;51.96;96313.06;5025406;28;20706;-77
2021/12/23 09:10:14;;;;;;;21.20;10.85;;;;;;;-1.35;51.71;96305.94;4992371;28;20264;-77
2021/12/23 09:12:40;;;;;;;22.83;11.60;;;;;;;-1.43;51.56;96301.91;4992223;28;20037;-78
2021/12/23 09:15:05;;;;;;;20.63;11.40;;;;;;;-1.45;52.11;96295.88;5008117;28;20056;-76
2021/12/23 09:17:31;;;;;;;27.20;12.27;;;;;;;-1.33;52.03;96283.00;5026960;28;20067;-74
2021/12/23 09:19:56;;;;;;;31.92;12.88;;;;;;;-1.38;52.17;96280.63;5025327;28;20751;-77
2021/12/23 09:22:22;;;;;;;21.52;11.38;;;;;;;-1.27;51.93;96277.41;5026607;28;20025;-78
2021/12/23 09:24:48;;;;;;;20.77;11.40;;;;;;;-1.25;51.85;96271.13;5007913;28;20418;-76
2021/12/23 09:27:33;;;;;;;24.70;11.30;;;;;;;-1.29;51.51;96276.66;5008760;28;20034;-79
2021/12/23 09:32:52;;;;;;;22.88;11.63;;;;;;;-1.20;50.72;96278.78;5010017;28;20139;-76
2021/12/23 09:35:21;;;;;;;19.08;10.77;;;;;;;-1.17;51.20;96277.75;5026344;28;20088;-77
2021/12/23 09:37:47;;;;;;;20.67;10.80;;;;;;;-1.03;51.39;96269.94;5025722;28;20105;-77
2021/12/23 09:40:13;;;;;;;24.50;10.63;;;;;;;-1.01;51.02;96267.22;4975982;28;20109;-78
2021/12/23 09:42:38;;;;;;;16.02;9.30;;;;;;;-1.07;51.33;96260.53;5008566;28;20060;-79
2021/12/23 09:45:06;;;;;;;21.50;10.40;;;;;;;-1.15;51.42;96266.22;5007885;28;20021;-77
2021/12/23 09:47:33;;;;;;;21.17;10.68;;;;;;;-1.19;51.36;96253.31;5026538;28;20029;-78
2021/12/23 09:49:59;;;;;;;20.95;10.05;;;;;;;-1.08;51.43;96247.44;5024899;28;20048;-77
2021/12/23 09:52:27;;;;;;;16.45;9.70;;;;;;;-1.01;51.13;96238.25;5026152;28;20053;-75
2021/12/23 09:54:53;;;;;;;24.77;10.93;;;;;;;-1.02;51.07;96236.56;5007569;28;20029;-76
2021/12/23 09:57:18;;;;;;;19.92;10.38;;;;;;;-0.93;51.20;96228.16;5011512;28;20029;-78
2021/12/23 09:59:43;;;;;;;19.63;10.73;;;;;;;-0.90;50.87;96221.84;5029309;28;20403;-77
2021/12/23 10:02:09;;;;;;;21.25;10.60;;;;;;;-0.73;51.30;96217.44;5029185;28;20499;-76
2021/12/23 10:04:34;;;;;;;23.90;11.77;;;;;;;-0.92;50.76;96219.31;5029693;28;20074;-78
2021/12/23 10:07:00;;;;;;;23.48;11.77;;;;;;;-0.93;50.60;96215.00;5010923;28;20029;-79
2021/12/23 10:09:43;;;;;;;24.80;11.60;;;;;;;-0.92;51.11;96203.50;4996237;28;20500;-76
2021/12/23 10:31:27;;;;;;;28.88;14.07;;;;;;;-0.94;50.60;96175.56;5029873;28;20813;-76
2021/12/23 10:37:22;;;;;;;32.47;15.50;;;;;;;-0.90;50.77;96185.84;5000566;28;20496;-77
2021/12/23 10:40:03;;;;;;;28.77;14.80;;;;;;;-0.88;50.71;96181.34;5029441;28;20040;-78
2021/12/23 10:42:29;;;;;;;29.13;14.95;;;;;;;-0.83;50.98;96174.94;5010565;28;20068;-78
2021/12/23 10:44:57;;;;;;;24.73;14.27;;;;;;;-0.80;51.12;96167.72;4995138;28;20028;-76
2021/12/23 10:47:29;;;;;;;26.92;13.63;;;;;;;-0.73;50.86;96157.69;4994436;28;20377;-79
2021/12/23 10:49:59;;;;;;;25.70;12.85;;;;;;;-0.73;50.97;96152.44;5028584;28;20095;-79
2021/12/23 10:52:29;;;;;;;27.40;13.73;;;;;;;-0.65;50.41;96146.69;5011756;28;20083;-77
2021/12/23 11:00:35;;;;;;;22.10;12.63;;;;;;;-0.38;50.92;96144.22;5013758;28;20510;-79
2021/12/23 11:03:19;;;;;;;30.83;15.00;;;;;;;-0.30;50.94;96132.38;5011659;28;20060;-76
2021/12/23 11:05:56;;;;;;;24.75;12.98;;;;;;;-0.20;50.77;96122.97;5029158;28;20036;-79
2021/12/23 11:08:37;;;;;;;22.10;13.20;;;;;;;-0.18;50.14;96118.44;5026967;28;20026;-78
2021/12/23 11:42:02;;;;;;;29.25;14.63;;;;;;;0.66;47.70;96069.31;5011718;28;20113;-78
2021/12/23 11:44:31;;;;;;;29.13;13.90;;;;;;;0.83;47.11;96077.00;5028036;28;20032;-79
2021/12/23 11:46:59;;;;;;;27.58;13.82;;;;;;;0.96;47.63;96068.25;5026866;28;20024;-77
2021/12/23 11:49:24;;;;;;;27.48;13.55;;;;;;;0.93;47.49;96063.19;5027810;28;20026;-78
2021/12/23 11:54:37;;;;;;;26.85;13.15;;;;;;;0.76;46.64;96054.56;5027632;28;20022;-77
2021/12/23 11:57:11;;;;;;;22.77;12.00;;;;;;;0.81;47.94;96054.25;5010010;28;20534;-79
2021/12/23 11:59:39;;;;;;;26.73;13.95;;;;;;;0.89;48.26;96049.31;5008716;28;20029;-78
2021/12/23 12:02:32;;;;;;;37.80;13.73;;;;;;;1.01;47.79;96041.53;4994245;28;20538;-76
2021/12/23 12:04:59;;;;;;;20.73;11.88;;;;;;;1.08;46.78;96043.66;5023236;28;20095;-79
2021/12/23 12:07:25;;;;;;;25.95;13.98;;;;;;;1.20;46.89;96049.06;5009293;28;20025;-76
2021/12/23 12:10:05;;;;;;;21.95;12.07;;;;;;;1.33;46.66;96043.78;5009638;28;20029;-80
2021/12/23 12:12:32;;;;;;;22.08;11.90;;;;;;;1.33;46.81;96038.50;5008649;28;20440;-77
2021/12/23 12:14:58;;;;;;;27.50;12.57;;;;;;;1.50;46.24;96026.78;5010063;28;20021;-78
2021/12/23 12:17:23;;;;;;;21.45;12.57;;;;;;;1.61;47.36;96031.34;5008623;28;20048;-80
2021/12/23 12:20:12;;;;;;;20.25;12.00;;;;;;;1.75;46.67;96034.81;5026169;28;20040;-77
2021/12/23 12:23:23;;;;;;;26.65;12.40;;;;;;;1.75;46.02;96035.66;5026330;28;20033;-77
2021/12/23 12:25:54;;;;;;;22.48;11.10;;;;;;;1.78;45.67;96022.22;4971336;28;20037;-79
2021/12/23 12:28:25;;;;;;;24.85;12.40;;;;;;;1.81;45.75;96016.72;5009768;28;20059;-78
2021/12/23 12:30:56;;;;;;;26.15;12.52;;;;;;;1.88;45.72;96017.13;5026225;28;20029;-77
2021/12/23 12:33:24;;;;;;;29.83;12.50;;;;;;;2.01;45.26;96018.91;5009739;28;20068;-78
2021/12/23 12:36:02;;;;;;;21.52;12.80;;;;;;;2.08;45.55;96004.28;5026545;28;20480;-77
2021/12/23 12:38:50;;;;;;;21.70;12.60;;;;;;;2.26;44.83;96006.56;5026179;28;20038;-78
2021/12/23 12:41:17;;;;;;;32.97;16.35;;;;;;;2.26;44.39;96007.38;5009531;28;20029;-77
2021/12/23 12:43:51;;;;;;;31.50;17.00;;;;;;;2.05;44.23;96009.78;5025741;28;20029;-77